Shell Fueler — WZW7217 — position and weather

sailwx.info

Track history (hours):
 
Tides and Currents Weather Stations Pressure Air Temp Water Temp Dewpoint Dewpoint Depression Visibility Wind Speed Wind Dir Waves Ship Positions

Shell Fueler

Owner: JOHN W STONE OIL DIST .LLC, GRETNA, LA. More information available from US FCC via Universal Licensing System and Coast Guard Vessel Documentation Center.

Last reported at 2014-Dec-21 15:32 UTC. Time now 2014-Dec-21 19:25 UTC.
Position N 29°55' W 090°08'.

Length 21 m; draft 2.5 m.

Type: Towing. MMSI: 366954210.

Date/timePositionNaut miles runAvg speedWind from/ knotsBaromVisibWave heightAir tempDewpointWater temp
2014-Dec-21 15:32N 29°55' W 090°08'3 3.6
2014-Dec-21 14:33N 29°55' W 090°04'0 0.2
2014-Dec-21 13:33N 29°55' W 090°04'0 0.0
2014-Dec-21 12:33N 29°55' W 090°04'0 0.0
2014-Dec-21 11:33N 29°55' W 090°04'0 0.0
2014-Dec-21 10:32N 29°55' W 090°04'0 0.0
2014-Dec-21 09:32N 29°55' W 090°04'0 0.0
2014-Dec-21 08:30N 29°55' W 090°04'0 0.0
2014-Dec-21 07:33N 29°55' W 090°04'0 0.0
2014-Dec-21 06:32N 29°55' W 090°04'0 0.0
2014-Dec-21 05:06N 29°55' W 090°04'  
2014-Dec-17 19:27N 29°58' W 090°03'4 3.5
2014-Dec-17 18:13N 29°56' W 089°58'5 0.4
2014-Dec-17 07:10N 29°52' W 089°55'6 1.6
2014-Dec-17 03:31N 29°56' W 089°60'0 0.2
2014-Dec-17 02:32N 29°56' W 089°60'0 0.0
2014-Dec-17 01:21N 29°56' W 089°60'0 0.0
2014-Dec-17 00:29N 29°56' W 089°60'3 0.3
2014-Dec-16 11:33N 29°57' W 090°03'1 0.1
2014-Dec-16 02:30N 29°56' W 090°04'2 1.8
2014-Dec-16 01:07N 29°54' W 090°05'3 1.0
2014-Dec-15 22:26N 29°52' W 090°04'3 3.1
2014-Dec-15 21:33N 29°55' W 090°05'0 0.0
2014-Dec-15 20:33N 29°55' W 090°05'2 1.4
2014-Dec-15 19:29N 29°55' W 090°04'0 0.0
2014-Dec-15 18:33N 29°55' W 090°04'1 0.7
2014-Dec-15 17:33N 29°55' W 090°04'1 0.7
2014-Dec-15 16:19N 29°56' W 090°04'33 3.3
2014-Dec-15 06:21N 30°03' W 090°41'0 0.0
2014-Dec-15 05:32N 30°03' W 090°41'29 1.5
2014-Dec-14 10:15N 29°57' W 090°09'4 5.7
2014-Dec-14 09:33N 29°55' W 090°05'3 2.9
2014-Dec-14 08:30N 29°55' W 090°08'12 5.8
2014-Dec-14 06:30N 29°56' W 090°21'13 0.3
2014-Dec-12 13:31N 30°03' W 090°34'9 7.3
2014-Dec-12 12:19N 30°01' W 090°44'0 0.0
2014-Dec-12 11:29N 30°01' W 090°44'0 0.0
2014-Dec-12 08:25N 30°01' W 090°44'0 0.0
2014-Dec-12 05:09N 30°01' W 090°44'31 4.3
2014-Dec-11 22:04N 29°57' W 090°09'3 5.5
2014-Dec-11 21:29N 29°55' W 090°06'2 2.2
2014-Dec-11 20:33N 29°55' W 090°04'  
Track history (hours):
 
Tides and Currents Weather Stations Pressure Air Temp Water Temp Dewpoint Dewpoint Depression Visibility Wind Speed Wind Dir Waves Ship Positions

Shell Fueler

Owner: JOHN W STONE OIL DIST .LLC, GRETNA, LA. More information available from US FCC via Universal Licensing System and Coast Guard Vessel Documentation Center.

Last reported at 2014-Dec-21 15:32 UTC. Time now 2014-Dec-21 19:25 UTC.
Position N 29°55' W 090°08'.

Length 21 m; draft 2.5 m.

Type: Towing. MMSI: 366954210.

Date/timePositionNaut miles runAvg speedWind from/ knotsBaromVisibWave heightAir tempDewpointWater temp
2014-Dec-21 15:32N 29°55' W 090°08'3 3.6
2014-Dec-21 14:33N 29°55' W 090°04'0 0.2
2014-Dec-21 13:33N 29°55' W 090°04'0 0.0
2014-Dec-21 12:33N 29°55' W 090°04'0 0.0
2014-Dec-21 11:33N 29°55' W 090°04'0 0.0
2014-Dec-21 10:32N 29°55' W 090°04'0 0.0
2014-Dec-21 09:32N 29°55' W 090°04'0 0.0
2014-Dec-21 08:30N 29°55' W 090°04'0 0.0
2014-Dec-21 07:33N 29°55' W 090°04'0 0.0
2014-Dec-21 06:32N 29°55' W 090°04'0 0.0
2014-Dec-21 05:06N 29°55' W 090°04'  
2014-Dec-17 19:27N 29°58' W 090°03'4 3.5
2014-Dec-17 18:13N 29°56' W 089°58'5 0.4
2014-Dec-17 07:10N 29°52' W 089°55'6 1.6
2014-Dec-17 03:31N 29°56' W 089°60'0 0.2
2014-Dec-17 02:32N 29°56' W 089°60'0 0.0
2014-Dec-17 01:21N 29°56' W 089°60'0 0.0
2014-Dec-17 00:29N 29°56' W 089°60'3 0.3
2014-Dec-16 11:33N 29°57' W 090°03'1 0.1
2014-Dec-16 02:30N 29°56' W 090°04'2 1.8
2014-Dec-16 01:07N 29°54' W 090°05'3 1.0
2014-Dec-15 22:26N 29°52' W 090°04'3 3.1
2014-Dec-15 21:33N 29°55' W 090°05'0 0.0
2014-Dec-15 20:33N 29°55' W 090°05'2 1.4
2014-Dec-15 19:29N 29°55' W 090°04'0 0.0
2014-Dec-15 18:33N 29°55' W 090°04'1 0.7
2014-Dec-15 17:33N 29°55' W 090°04'1 0.7
2014-Dec-15 16:19N 29°56' W 090°04'33 3.3
2014-Dec-15 06:21N 30°03' W 090°41'0 0.0
2014-Dec-15 05:32N 30°03' W 090°41'29 1.5
2014-Dec-14 10:15N 29°57' W 090°09'4 5.7
2014-Dec-14 09:33N 29°55' W 090°05'3 2.9
2014-Dec-14 08:30N 29°55' W 090°08'12 5.8
2014-Dec-14 06:30N 29°56' W 090°21'13 0.3
2014-Dec-12 13:31N 30°03' W 090°34'9 7.3
2014-Dec-12 12:19N 30°01' W 090°44'0 0.0
2014-Dec-12 11:29N 30°01' W 090°44'0 0.0
2014-Dec-12 08:25N 30°01' W 090°44'0 0.0
2014-Dec-12 05:09N 30°01' W 090°44'31 4.3
2014-Dec-11 22:04N 29°57' W 090°09'3 5.5
2014-Dec-11 21:29N 29°55' W 090°06'2 2.2
2014-Dec-11 20:33N 29°55' W 090°04'  

Dump ship's entire track history